Time;durP1;ratioP1;P1;durP2;ratioP2;P2;SDS_P1;SDS_P2;PMS_P1;PMS_P2;Temp;Humidity;BMP_temperature;BMP_pressure;BME280_temperature;BME280_humidity;BME280_pressure;Samples;Min_cycle;Max_cycle;Signal;HPM_P1;HPM_P2
2023/07/11 00:01:20;;;;;;;6.90;2.43;;;;;;;19.26;75.20;156275.31;4930913;29;20067;-72
2023/07/11 00:03:45;;;;;;;9.67;2.23;;;;;;;19.24;75.63;156270.13;4915018;29;20124;-72
2023/07/11 00:06:16;;;;;;;8.50;2.23;;;;;;;19.26;76.59;156275.31;4933741;29;20027;-72
2023/07/11 00:08:43;;;;;;;10.43;2.65;;;;;;;19.26;76.78;156274.03;4928470;29;20483;-72
2023/07/11 00:11:10;;;;;;;;;;;;;;;19.18;78.47;156253.09;4936431;29;20067;-72
2023/07/11 00:13:37;;;;;;;4.30;1.80;;;;;;;19.11;77.58;156236.16;4932659;29;19925;-71
2023/07/11 00:16:05;;;;;;;7.35;2.05;;;;;;;19.21;77.99;156260.94;4918971;29;20293;-73
2023/07/11 00:18:31;;;;;;;7.25;2.30;;;;;;;19.12;78.59;156237.47;4901312;29;20103;-72
2023/07/11 00:20:57;;;;;;;12.33;2.13;;;;;;;19.06;77.82;156221.84;4934330;29;20480;-72
2023/07/11 00:23:23;;;;;;;7.65;2.10;;;;;;;19.07;79.03;156225.75;4933958;29;20066;-72
2023/07/11 00:25:51;;;;;;;9.63;2.08;;;;;;;19.08;78.34;156228.38;4932947;29;20475;-73
2023/07/11 00:28:16;;;;;;;9.00;2.20;;;;;;;19.10;77.74;156233.56;4930412;29;20036;-71
2023/07/11 00:30:41;;;;;;;6.67;2.27;;;;;;;19.04;77.61;156216.66;4935070;29;20050;-71
2023/07/11 00:33:10;;;;;;;10.80;2.30;;;;;;;19.07;77.69;156224.44;4930965;29;20109;-72
2023/07/11 00:35:39;;;;;;;5.03;1.77;;;;;;;19.07;78.44;156224.44;4918427;29;20034;-71
2023/07/11 00:38:05;;;;;;;7.68;2.00;;;;;;;19.08;79.35;156227.03;4918524;29;20042;-72
2023/07/11 00:40:30;;;;;;;5.15;2.10;;;;;;;19.04;79.50;156216.66;4931011;29;20073;-72
2023/07/11 00:42:59;;;;;;;12.63;2.20;;;;;;;19.04;79.88;156216.66;4916114;29;20416;-72
2023/07/11 00:46:02;;;;;;;7.70;2.67;;;;;;;19.02;80.22;156212.72;4934148;29;20043;-72
2023/07/11 00:48:28;;;;;;;6.70;2.00;;;;;;;18.97;80.98;156199.69;4933574;29;20115;-72
2023/07/11 00:50:56;;;;;;;5.90;2.00;;;;;;;18.92;81.11;156185.34;4930386;29;20475;-72
2023/07/11 00:53:24;;;;;;;14.00;2.88;;;;;;;18.86;82.11;156169.72;4928575;29;20091;-72
2023/07/11 00:55:50;;;;;;;8.50;2.47;;;;;;;18.86;82.35;156171.03;4896538;29;20126;-72
2023/07/11 00:58:17;;;;;;;7.47;2.37;;;;;;;18.84;83.07;156164.50;4931840;29;20051;-73
2023/07/11 01:00:43;;;;;;;5.72;2.30;;;;;;;18.80;83.10;156155.41;4934291;29;20031;-72
2023/07/11 01:03:08;;;;;;;7.83;1.83;;;;;;;18.78;83.01;156150.16;4931934;29;20364;-73
2023/07/11 01:05:35;;;;;;;7.70;2.20;;;;;;;18.77;83.27;156146.25;4933433;29;20055;-73
2023/07/11 01:08:02;;;;;;;;;;;;;;;18.78;84.17;156150.16;4932252;29;20019;-72
2023/07/11 01:10:27;;;;;;;6.60;2.20;;;;;;;18.72;84.77;156134.53;4930762;29;19915;-72
2023/07/11 01:12:59;;;;;;;9.30;2.03;;;;;;;18.68;84.06;156124.09;4933161;29;20051;-73
2023/07/11 01:15:24;;;;;;;8.63;2.50;;;;;;;18.65;84.48;156114.97;4932025;29;20042;-72
2023/07/11 01:17:50;;;;;;;5.87;2.10;;;;;;;18.63;85.07;156111.06;4915851;29;20488;-72
2023/07/11 01:20:15;;;;;;;7.50;2.83;;;;;;;18.62;86.03;156107.19;4918560;29;20435;-71
2023/07/11 01:22:41;;;;;;;5.13;2.00;;;;;;;18.59;85.75;156099.34;4935245;29;20056;-72
2023/07/11 01:25:13;;;;;;;6.32;2.78;;;;;;;18.55;85.96;156090.25;4937017;29;20031;-72
2023/07/11 01:27:42;;;;;;;7.40;2.13;;;;;;;18.48;86.08;156072.03;4934527;29;20036;-72
2023/07/11 01:30:10;;;;;;;8.95;2.50;;;;;;;18.55;86.93;156088.91;4918148;29;20440;-72
2023/07/11 01:32:36;;;;;;;9.45;2.97;;;;;;;18.51;86.43;156078.53;4935139;29;20392;-72
2023/07/11 01:35:03;;;;;;;8.38;2.25;;;;;;;18.47;86.68;156069.38;4935210;29;20100;-72
2023/07/11 01:37:29;;;;;;;12.95;2.75;;;;;;;18.41;86.30;156053.75;4932697;29;20088;-72
2023/07/11 01:39:54;;;;;;;8.83;2.30;;;;;;;18.40;86.63;156049.88;4939255;29;20028;-72
2023/07/11 01:42:21;;;;;;;9.93;2.33;;;;;;;18.39;87.23;156048.56;4919648;29;20027;-72
2023/07/11 01:44:47;;;;;;;12.55;2.92;;;;;;;18.40;87.89;156049.88;4897437;29;1182667;-72
2023/07/11 01:47:12;;;;;;;8.23;2.90;;;;;;;18.33;88.99;156031.63;4934562;29;20119;-72
2023/07/11 01:49:38;;;;;;;12.77;3.17;;;;;;;18.34;88.55;156034.22;4922371;29;20385;-72
2023/07/11 01:52:07;;;;;;;6.60;2.37;;;;;;;18.29;87.89;156021.13;4936976;29;20082;-73
2023/07/11 01:54:33;;;;;;;11.65;2.53;;;;;;;18.22;87.63;156004.22;4937152;29;20035;-72
2023/07/11 01:56:59;;;;;;;7.70;2.87;;;;;;;18.20;89.88;155997.72;4936908;29;20103;-71
2023/07/11 01:59:25;;;;;;;8.57;2.63;;;;;;;18.14;90.15;155983.38;4917688;29;20114;-72
2023/07/11 02:01:51;;;;;;;8.25;2.47;;;;;;;18.12;89.35;155978.19;4934903;29;20027;-71
2023/07/11 02:04:21;;;;;;;11.03;2.63;;;;;;;18.11;88.50;155974.25;4937433;29;20055;-72
2023/07/11 02:06:47;;;;;;;7.50;2.72;;;;;;;18.07;87.17;155963.84;4932940;29;20118;-71
2023/07/11 02:09:13;;;;;;;4.43;2.58;;;;;;;18.04;88.80;155956.06;4932031;29;20263;-72
2023/07/11 02:11:38;;;;;;;5.50;2.80;;;;;;;17.98;90.86;155941.69;4935012;29;20404;-72
2023/07/11 02:14:04;;;;;;;12.47;3.03;;;;;;;18.02;90.61;155952.13;4936601;29;20047;-72
2023/07/11 02:16:29;;;;;;;6.53;3.20;;;;;;;17.99;90.56;155943.03;4936500;29;20031;-72
2023/07/11 02:18:54;;;;;;;6.80;2.10;;;;;;;17.91;89.65;155922.16;4935077;29;20027;-72
2023/07/11 02:21:20;;;;;;;12.07;2.53;;;;;;;17.88;89.43;155915.66;4935251;29;20110;-72
2023/07/11 02:23:46;;;;;;;6.63;2.37;;;;;;;17.85;91.00;155907.88;4916451;29;20388;-72
2023/07/11 02:26:15;;;;;;;6.00;2.20;;;;;;;17.78;90.85;155888.34;4936128;29;20096;-71
2023/07/11 02:28:41;;;;;;;7.13;2.20;;;;;;;17.74;91.47;155877.91;4934186;29;20384;-72
2023/07/11 02:31:06;;;;;;;9.53;2.33;;;;;;;17.70;91.70;155867.47;4936569;29;20028;-71
2023/07/11 02:33:32;;;;;;;6.50;2.30;;;;;;;17.70;90.72;155867.47;4922002;29;20055;-73
2023/07/11 02:35:57;;;;;;;6.20;2.37;;;;;;;17.66;92.35;155857.09;4934097;29;20376;-72
2023/07/11 02:38:24;;;;;;;11.97;2.80;;;;;;;17.64;92.56;155851.88;4937114;29;20039;-72
2023/07/11 02:40:50;;;;;;;6.10;2.47;;;;;;;17.63;92.22;155850.59;4929713;29;20331;-74
2023/07/11 02:43:17;;;;;;;7.27;2.30;;;;;;;17.63;91.83;155850.59;4934940;29;20028;-74
2023/07/11 02:45:42;;;;;;;5.57;2.28;;;;;;;17.55;92.17;155829.75;4936679;29;20506;-73
2023/07/11 02:48:08;;;;;;;8.50;2.10;;;;;;;17.61;93.31;155844.09;4903229;29;20123;-71
2023/07/11 02:50:33;;;;;;;3.77;2.00;;;;;;;17.57;92.40;155833.66;4934001;29;20063;-71
2023/07/11 02:53:01;;;;;;;7.57;2.17;;;;;;;17.58;93.13;155837.56;4916827;29;20046;-73
2023/07/11 02:55:27;;;;;;;4.80;1.95;;;;;;;17.60;92.05;155842.75;4935819;29;20062;-74
2023/07/11 02:57:53;;;;;;;10.23;2.17;;;;;;;17.57;91.48;155833.66;4938065;29;20055;-73
2023/07/11 03:00:19;;;;;;;;;;;;;;;17.54;92.78;155825.81;4936173;29;20032;-74
2023/07/11 03:02:44;;;;;;;5.88;2.28;;;;;;;17.55;93.01;155828.47;4934466;29;20563;-74
2023/07/11 03:05:10;;;;;;;4.70;1.80;;;;;;;17.59;91.98;155838.84;4934930;29;20487;-74
2023/07/11 03:07:36;;;;;;;5.90;2.23;;;;;;;17.57;91.65;155834.97;4917804;29;20054;-73
2023/07/11 03:10:02;;;;;;;9.50;3.00;;;;;;;17.54;91.95;155827.16;4934721;29;20141;-74
2023/07/11 03:12:27;;;;;;;5.50;2.25;;;;;;;17.55;91.66;155828.47;4916489;29;20031;-73
2023/07/11 03:14:53;;;;;;;6.87;2.30;;;;;;;17.48;92.76;155811.53;4938176;29;20043;-74
2023/07/11 03:17:18;;;;;;;5.40;1.80;;;;;;;17.48;92.32;155811.53;4917458;29;20062;-74
2023/07/11 03:19:44;;;;;;;4.40;1.83;;;;;;;17.44;91.59;155799.84;4933971;29;20095;-73
2023/07/11 03:22:09;;;;;;;4.10;1.73;;;;;;;17.46;92.34;155806.28;4933365;29;20100;-74
2023/07/11 03:24:35;;;;;;;5.97;2.30;;;;;;;17.44;91.58;155801.09;4932581;29;20559;-74
2023/07/11 03:27:00;;;;;;;5.70;2.00;;;;;;;17.47;91.98;155807.63;4935774;29;20036;-74
2023/07/11 03:29:25;;;;;;;3.70;1.60;;;;;;;17.42;92.80;155794.59;4914384;29;20039;-73
2023/07/11 03:31:51;;;;;;;9.60;2.20;;;;;;;17.38;92.36;155785.50;4934800;29;20035;-73
2023/07/11 03:34:16;;;;;;;6.17;1.90;;;;;;;17.41;92.87;155792.00;4932654;29;20095;-74
2023/07/11 03:36:42;;;;;;;7.13;2.20;;;;;;;17.37;92.87;155781.53;4934123;29;20059;-74
2023/07/11 03:39:08;;;;;;;6.47;1.80;;;;;;;17.39;93.37;155788.09;4935958;29;20039;-73
2023/07/11 03:41:34;;;;;;;5.17;1.67;;;;;;;17.35;93.19;155776.34;4921894;29;20544;-73
2023/07/11 03:44:00;;;;;;;6.25;2.58;;;;;;;17.28;93.30;155759.41;4913717;29;20027;-73
2023/07/11 03:46:25;;;;;;;7.55;2.10;;;;;;;17.33;94.39;155772.44;4934447;29;20169;-73
2023/07/11 03:48:58;;;;;;;6.67;1.70;;;;;;;17.28;93.32;155759.41;4916269;29;20034;-73
2023/07/11 03:51:23;;;;;;;4.75;1.92;;;;;;;17.26;94.37;155752.91;4912470;29;20056;-73
2023/07/11 03:53:49;;;;;;;9.13;2.30;;;;;;;17.26;94.42;155754.22;4933035;29;20063;-73
2023/07/11 03:56:14;;;;;;;6.53;1.87;;;;;;;17.18;94.48;155733.38;4938130;29;20035;-74
2023/07/11 03:58:39;;;;;;;4.30;1.80;;;;;;;17.23;95.27;155746.38;4915733;29;20039;-74
2023/07/11 04:01:05;;;;;;;12.23;2.37;;;;;;;17.19;96.04;155734.69;4935394;29;20380;-74
2023/07/11 04:03:30;;;;;;;3.37;1.73;;;;;;;17.21;96.01;155741.19;4926491;29;20086;-74
2023/07/11 04:05:56;;;;;;;9.90;2.47;;;;;;;17.18;95.45;155732.09;4934523;29;20480;-73
2023/07/11 04:08:22;;;;;;;6.43;2.17;;;;;;;17.24;95.44;155747.72;4930936;29;20032;-73
2023/07/11 04:10:47;;;;;;;4.50;2.03;;;;;;;17.20;95.94;155738.59;4938362;29;20046;-73
2023/07/11 04:13:14;;;;;;;5.37;2.37;;;;;;;17.22;96.38;155742.47;4934052;29;20297;-73
2023/07/11 04:15:39;;;;;;;5.78;2.38;;;;;;;17.23;96.13;155746.38;4917310;29;20118;-74
2023/07/11 04:18:05;;;;;;;7.47;2.97;;;;;;;17.28;95.90;155758.13;4917552;29;20158;-73
2023/07/11 04:20:30;;;;;;;3.60;1.80;;;;;;;17.29;95.73;155760.72;4934211;29;20023;-74
2023/07/11 04:22:56;;;;;;;11.17;3.07;;;;;;;17.25;95.36;155751.63;4932363;29;20027;-73
2023/07/11 04:25:21;;;;;;;9.37;2.50;;;;;;;17.30;96.44;155763.31;4935206;29;20110;-73
2023/07/11 04:27:46;;;;;;;5.33;2.20;;;;;;;17.36;95.54;155778.94;4931726;29;20039;-73
2023/07/11 04:30:12;;;;;;;4.80;1.97;;;;;;;17.35;95.40;155777.59;4934081;29;20042;-74
2023/07/11 04:32:38;;;;;;;13.57;2.70;;;;;;;17.42;96.20;155794.59;4934047;29;20027;-74
2023/07/11 04:35:06;;;;;;;5.53;2.23;;;;;;;17.52;95.91;155820.63;4932648;29;20286;-74
2023/07/11 04:37:32;;;;;;;11.38;2.78;;;;;;;17.61;94.83;155845.34;4929910;29;20109;-74
2023/07/11 04:39:57;;;;;;;5.23;2.47;;;;;;;17.65;94.51;155855.78;4936752;29;20107;-74
2023/07/11 04:42:22;;;;;;;13.37;2.87;;;;;;;17.73;94.78;155875.31;4932580;29;20465;-74
2023/07/11 04:44:48;;;;;;;7.33;3.00;;;;;;;17.89;94.45;155918.28;4934975;29;20044;-74
2023/07/11 04:47:13;;;;;;;10.27;2.73;;;;;;;17.96;93.72;155935.19;4913861;29;20082;-75
2023/07/11 04:49:39;;;;;;;11.90;3.17;;;;;;;18.04;93.48;155956.06;4930320;29;20123;-74
2023/07/11 04:52:04;;;;;;;13.33;3.37;;;;;;;18.15;93.48;155985.97;4915715;29;20062;-74
2023/07/11 04:54:30;;;;;;;9.77;2.80;;;;;;;18.27;92.68;156017.25;4936866;29;20075;-74
2023/07/11 04:56:58;;;;;;;15.10;3.70;;;;;;;18.30;92.63;156023.78;4936141;29;20028;-73
2023/07/11 04:59:24;;;;;;;14.50;3.25;;;;;;;18.35;92.43;156036.84;4932722;28;20032;-74
2023/07/11 05:01:51;;;;;;;14.15;3.83;;;;;;;18.44;91.68;156061.59;4927015;29;20028;-74
2023/07/11 05:04:17;;;;;;;13.88;3.75;;;;;;;18.54;91.61;156086.31;4912797;29;20481;-74
2023/07/11 05:06:43;;;;;;;16.70;3.77;;;;;;;18.66;91.04;156118.91;4934373;29;20031;-73
2023/07/11 05:09:08;;;;;;;10.02;3.85;;;;;;;18.77;89.70;156147.56;4937852;29;20031;-74
2023/07/11 05:11:35;;;;;;;10.83;4.17;;;;;;;18.83;88.90;156161.91;4935936;29;20040;-72
2023/07/11 05:14:01;;;;;;;12.90;4.75;;;;;;;18.88;88.66;156174.94;4916113;29;20034;-74
2023/07/11 05:16:28;;;;;;;15.13;4.73;;;;;;;19.00;88.22;156206.22;4932651;29;20484;-74
2023/07/11 05:18:56;;;;;;;11.55;4.35;;;;;;;19.16;86.67;156249.19;4929691;29;20410;-74
2023/07/11 05:21:22;;;;;;;12.35;4.93;;;;;;;19.64;85.28;156374.38;4931615;29;20066;-74
2023/07/11 05:23:48;;;;;;;10.05;4.22;;;;;;;20.60;80.21;156623.56;4914774;29;20042;-74
2023/07/11 05:26:15;;;;;;;11.73;4.10;;;;;;;21.67;76.01;156904.22;4932345;29;20035;-73
2023/07/11 05:28:40;;;;;;;16.33;3.97;;;;;;;22.52;72.00;157125.09;4933187;29;20114;-74
2023/07/11 05:31:07;;;;;;;9.93;3.70;;;;;;;23.29;66.91;157326.38;4918061;29;20502;-74
2023/07/11 05:33:33;;;;;;;9.60;3.65;;;;;;;24.06;64.04;157529.13;4899899;29;20042;-74
2023/07/11 05:36:31;;;;;;;9.48;3.97;;;;;;;24.72;62.28;157701.91;4932605;29;20032;-73
2023/07/11 05:39:29;;;;;;;12.07;3.50;;;;;;;25.69;58.78;157955.88;4933426;29;20027;-74
2023/07/11 05:41:56;;;;;;;8.90;3.25;;;;;;;25.66;58.26;157948.00;4885269;29;20051;-73
2023/07/11 05:44:21;;;;;;;7.60;3.55;;;;;;;26.23;54.83;158096.06;4930157;29;20047;-71
2023/07/11 05:46:47;;;;;;;10.73;3.95;;;;;;;26.60;53.94;158194.38;4930127;29;20499;-73
2023/07/11 05:49:12;;;;;;;6.25;2.83;;;;;;;26.67;53.90;158212.72;4932388;29;20031;-73
2023/07/11 05:51:37;;;;;;;9.07;3.65;;;;;;;26.82;53.07;158252.03;4929838;29;20403;-73
2023/07/11 05:54:03;;;;;;;;;;;;;;;27.10;52.28;158325.41;4930407;29;20115;-74
2023/07/11 05:56:28;;;;;;;14.88;3.80;;;;;;;27.72;50.19;158488.06;4929568;29;20006;-74
2023/07/11 05:58:54;;;;;;;;;;;;;;;27.47;49.40;158421.19;4933897;29;20016;-75
2023/07/11 06:01:27;;;;;;;6.82;3.38;;;;;;;27.45;49.62;158417.25;4929115;29;19971;-73
2023/07/11 06:04:07;;;;;;;8.07;3.30;;;;;;;27.80;49.71;158507.78;4931194;29;20024;-74
2023/07/11 06:06:35;;;;;;;12.45;3.83;;;;;;;28.14;46.66;158598.28;4905828;29;20152;-73
2023/07/11 06:09:00;;;;;;;10.70;3.42;;;;;;;28.42;48.04;158670.44;4933056;29;20024;-73
2023/07/11 06:11:26;;;;;;;;;;;;;;;27.68;49.50;158477.56;4940551;28;20043;-73
2023/07/11 06:13:51;;;;;;;11.93;3.58;;;;;;;28.18;48.64;158608.72;4935044;29;19925;-73
2023/07/11 06:16:18;;;;;;;;;;;;;;;28.44;46.69;158677.00;4936524;29;20110;-73
2023/07/11 06:18:46;;;;;;;9.20;3.20;;;;;;;28.81;44.60;158772.81;4937318;29;20279;-72
2023/07/11 06:21:11;;;;;;;16.52;3.55;;;;;;;29.03;45.23;158830.59;4935823;29;20065;-73
2023/07/11 06:23:37;;;;;;;;;;;;;;;29.48;45.56;158948.72;4936129;29;20051;-72
2023/07/11 06:26:03;;;;;;;10.13;3.70;;;;;;;28.82;46.02;158776.72;4930244;29;20139;-72
2023/07/11 06:28:29;;;;;;;7.88;3.38;;;;;;;29.06;45.96;158838.44;4927301;29;20438;-72
2023/07/11 06:30:57;;;;;;;;;;;;;;;29.44;45.05;158939.53;4918504;29;20035;-72
2023/07/11 06:33:23;;;;;;;13.88;3.92;;;;;;;29.18;45.96;158870.00;4932867;29;19922;-72
2023/07/11 06:35:49;;;;;;;17.08;3.47;;;;;;;29.40;43.87;158929.03;4934655;29;20032;-72
2023/07/11 06:38:15;;;;;;;8.52;3.80;;;;;;;29.17;45.18;158867.31;4937381;29;20127;-72
2023/07/11 06:40:50;;;;;;;8.93;3.08;;;;;;;29.58;43.66;158976.38;4935592;29;20107;-74
2023/07/11 06:43:16;;;;;;;13.43;3.50;;;;;;;29.82;44.34;159038.09;4936747;29;20027;-71
2023/07/11 06:45:45;;;;;;;13.55;3.60;;;;;;;30.44;42.41;159202.28;4917013;29;20052;-73
2023/07/11 06:48:10;;;;;;;10.85;3.50;;;;;;;30.35;41.91;159178.63;4934675;29;20087;-74
2023/07/11 06:50:35;;;;;;;7.07;3.50;;;;;;;30.06;43.04;159102.41;4932136;29;20031;-74
2023/07/11 06:53:01;;;;;;;13.20;4.45;;;;;;;30.21;43.69;159140.56;4934843;29;20107;-73
2023/07/11 06:55:26;;;;;;;15.00;3.97;;;;;;;29.91;42.86;159063.00;4916455;29;20028;-73
2023/07/11 06:57:51;;;;;;;11.40;3.88;;;;;;;30.46;42.84;159206.25;4932690;29;20058;-73
2023/07/11 07:00:18;;;;;;;12.65;3.38;;;;;;;30.56;40.49;159232.53;4932939;29;20114;-73
2023/07/11 07:02:44;;;;;;;14.98;3.95;;;;;;;30.37;42.89;159182.59;4932580;29;20483;-74
2023/07/11 07:05:09;;;;;;;12.07;3.00;;;;;;;30.47;41.70;159208.88;4920106;29;20034;-74
2023/07/11 07:07:34;;;;;;;12.55;3.00;;;;;;;30.50;42.74;159218.03;4937305;29;20036;-74
2023/07/11 07:10:00;;;;;;;13.65;3.33;;;;;;;30.30;42.46;159165.50;4935803;29;20475;-73
2023/07/11 07:12:26;;;;;;;12.43;3.25;;;;;;;30.42;42.21;159195.72;4919556;29;20033;-73
2023/07/11 07:14:51;;;;;;;9.95;2.92;;;;;;;30.12;41.90;159118.22;4938400;29;20034;-73
2023/07/11 07:17:16;;;;;;;;;;;;;;;30.35;41.46;159178.63;4935393;29;20034;-73
2023/07/11 07:19:43;;;;;;;9.35;2.95;;;;;;;30.04;42.59;159097.13;4933947;29;19973;-74
2023/07/11 07:22:08;;;;;;;7.93;2.65;;;;;;;30.18;42.67;159132.66;4926738;29;20031;-74
2023/07/11 07:24:34;;;;;;;;;;;;;;;30.37;42.79;159182.59;4933836;29;20130;-74
2023/07/11 07:26:59;;;;;;;9.63;2.83;;;;;;;30.48;42.96;159212.81;4935442;29;19911;-74
2023/07/11 07:29:24;;;;;;;;;;;;;;;30.42;42.95;159195.72;4936029;29;20358;-74
2023/07/11 07:31:50;;;;;;;7.55;2.35;;;;;;;30.31;42.92;159166.84;4935005;29;20043;-74
2023/07/11 07:34:15;;;;;;;;;;;;;;;30.33;41.66;159173.41;4935063;29;20036;-74
2023/07/11 07:36:40;;;;;;;20.85;3.50;;;;;;;30.70;42.16;159270.66;4926193;29;19977;-74
2023/07/11 07:39:06;;;;;;;;;;;;;;;30.67;40.51;159262.75;4934073;29;20032;-74
2023/07/11 07:41:31;;;;;;;16.20;2.75;;;;;;;30.34;41.36;159174.69;4933924;29;20276;-74
2023/07/11 07:43:56;;;;;;;;;;;;;;;29.56;42.51;158971.09;4921990;29;20111;-74
2023/07/11 07:46:22;;;;;;;9.48;2.15;;;;;;;29.71;41.69;159009.19;4934908;29;19925;-73
2023/07/11 07:48:47;;;;;;;14.88;2.78;;;;;;;29.11;42.53;158851.59;4934799;29;20032;-72
2023/07/11 07:51:16;;;;;;;9.20;2.63;;;;;;;28.73;44.26;158751.78;4934354;29;20488;-74
2023/07/11 07:53:41;;;;;;;11.68;2.30;;;;;;;28.51;44.48;158694.06;4915812;29;20395;-74
2023/07/11 07:56:19;;;;;;;10.90;2.37;;;;;;;28.34;44.65;158650.72;4933541;29;20106;-74
2023/07/11 07:58:45;;;;;;;12.05;2.78;;;;;;;27.96;45.29;158551.03;4934185;29;20032;-73
2023/07/11 08:01:12;;;;;;;9.80;2.25;;;;;;;27.99;46.17;158557.59;4934586;29;20035;-74
2023/07/11 08:03:38;;;;;;;8.52;2.80;;;;;;;28.00;46.32;158560.25;4938082;29;20036;-73
2023/07/11 08:06:04;;;;;;;9.93;2.20;;;;;;;28.03;46.75;158569.44;4917354;29;20039;-73
2023/07/11 08:08:30;;;;;;;9.88;3.33;;;;;;;28.35;46.06;158653.38;4921647;29;20047;-73
2023/07/11 08:11:00;;;;;;;13.23;2.92;;;;;;;27.99;46.09;158558.91;4913878;29;20032;-73
2023/07/11 08:13:26;;;;;;;13.93;2.78;;;;;;;27.72;46.87;158486.72;4926927;29;20031;-73
2023/07/11 08:15:51;;;;;;;6.97;2.53;;;;;;;27.92;47.07;158539.25;4931764;29;20126;-73
2023/07/11 08:18:17;;;;;;;11.32;2.20;;;;;;;28.38;47.39;158661.28;4915736;29;20024;-73
2023/07/11 08:20:42;;;;;;;16.60;2.40;;;;;;;28.55;45.81;158704.59;4932881;29;20042;-73
2023/07/11 08:23:08;;;;;;;11.65;2.75;;;;;;;28.21;45.57;158615.28;4929606;29;20496;-73
2023/07/11 08:25:34;;;;;;;10.90;2.43;;;;;;;28.25;46.39;158625.81;4932956;29;20032;-72
2023/07/11 08:27:59;;;;;;;7.22;2.67;;;;;;;27.93;47.71;158541.84;4918896;29;20074;-72
2023/07/11 08:30:25;;;;;;;7.70;2.67;;;;;;;27.94;47.84;158545.81;4928215;29;20476;-73
2023/07/11 08:32:50;;;;;;;6.95;2.50;;;;;;;28.20;46.73;158612.69;4930869;29;20179;-73
2023/07/11 08:35:16;;;;;;;4.83;2.27;;;;;;;27.77;46.68;158499.84;4914426;29;20199;-73
2023/07/11 08:37:41;;;;;;;10.03;2.53;;;;;;;27.99;47.55;158558.91;4932819;29;20098;-73
2023/07/11 08:40:16;;;;;;;9.23;2.30;;;;;;;27.55;46.67;158442.16;4930895;29;20289;-74
2023/07/11 08:42:43;;;;;;;10.95;2.47;;;;;;;27.74;47.07;158492.00;4929797;29;20132;-73
2023/07/11 08:45:16;;;;;;;10.02;2.50;;;;;;;27.57;46.62;158447.38;4933780;29;20040;-73
2023/07/11 08:47:52;;;;;;;9.98;2.88;;;;;;;27.73;47.67;158490.66;4914144;29;20023;-73
2023/07/11 08:50:23;;;;;;;10.25;2.67;;;;;;;27.78;46.89;158502.44;4914012;29;20032;-73
2023/07/11 08:52:59;;;;;;;7.65;2.60;;;;;;;27.96;46.54;158551.03;4912477;29;20449;-73
2023/07/11 08:55:30;;;;;;;14.93;2.50;;;;;;;27.66;47.20;158471.00;4930297;29;20032;-73
2023/07/11 08:58:12;;;;;;;8.85;2.80;;;;;;;27.61;47.06;158459.22;4932181;29;20523;-73
2023/07/11 09:00:38;;;;;;;16.88;3.20;;;;;;;27.83;47.36;158515.63;4929148;29;20047;-72
2023/07/11 09:03:12;;;;;;;;;;;;;;;28.07;47.26;158578.59;4933820;29;20100;-73
2023/07/11 09:05:38;;;;;;;9.05;2.38;;;;;;;28.31;46.40;158642.88;4914341;29;19915;-73
2023/07/11 09:08:03;;;;;;;17.07;2.67;;;;;;;28.05;46.26;158573.31;4932947;29;20502;-72
2023/07/11 09:10:38;;;;;;;11.60;3.30;;;;;;;27.68;46.54;158477.56;4930149;29;20082;-74
2023/07/11 09:13:23;;;;;;;14.70;2.97;;;;;;;27.92;46.92;158539.25;4925420;29;20046;-73
2023/07/11 09:16:23;;;;;;;10.55;2.20;;;;;;;28.51;46.04;158694.06;4932001;29;20480;-74
2023/07/11 09:19:05;;;;;;;8.70;2.47;;;;;;;28.44;45.79;158677.00;4928948;29;20042;-73
2023/07/11 09:21:37;;;;;;;14.50;3.28;;;;;;;28.34;46.17;158650.72;4927592;29;20035;-73
2023/07/11 09:24:18;;;;;;;9.73;2.70;;;;;;;28.33;43.78;158646.81;4921458;29;20051;-73
2023/07/11 09:26:47;;;;;;;6.88;2.47;;;;;;;27.84;45.70;158518.28;4926443;29;20038;-73
2023/07/11 09:29:14;;;;;;;8.60;2.33;;;;;;;27.63;45.06;158464.44;4931704;29;20071;-73
2023/07/11 09:31:43;;;;;;;15.77;2.40;;;;;;;27.54;44.99;158439.53;4927813;29;20403;-72
2023/07/11 09:34:19;;;;;;;7.47;2.08;;;;;;;27.37;45.82;158394.97;4925852;29;20035;-72
2023/07/11 09:36:48;;;;;;;6.03;2.75;;;;;;;27.55;45.11;158442.16;4910317;29;20036;-75
2023/07/11 09:39:51;;;;;;;7.97;2.58;;;;;;;27.50;46.13;158430.38;4932406;29;20119;-72
2023/07/11 09:42:29;;;;;;;9.07;2.42;;;;;;;27.12;46.34;158329.38;4893337;29;20063;-73
2023/07/11 09:45:08;;;;;;;6.80;2.50;;;;;;;27.93;45.12;158541.84;4930484;29;20055;-72
2023/07/11 09:47:34;;;;;;;10.23;2.58;;;;;;;27.19;47.74;158349.09;4937373;29;20528;-72
2023/07/11 09:50:11;;;;;;;11.82;2.50;;;;;;;27.06;48.52;158314.91;4934738;29;20051;-74
2023/07/11 09:52:38;;;;;;;;;;;;;;;27.58;47.28;158450.03;4932484;29;20042;-72
2023/07/11 09:55:03;;;;;;;6.53;2.63;;;;;;;27.63;46.54;158464.44;4934861;29;19961;-73
2023/07/11 09:57:29;;;;;;;13.43;3.45;;;;;;;27.40;47.43;158402.81;4936191;29;20124;-74
2023/07/11 10:00:00;;;;;;;10.10;3.13;;;;;;;27.41;47.59;158405.44;4936147;29;20507;-73
2023/07/11 10:02:25;;;;;;;10.10;2.85;;;;;;;27.75;46.45;158494.63;4935774;29;20392;-73
2023/07/11 10:04:57;;;;;;;7.53;2.33;;;;;;;28.33;46.31;158646.81;4932784;29;20023;-72
2023/07/11 10:07:28;;;;;;;14.18;3.25;;;;;;;28.27;45.86;158632.34;4934512;29;20038;-73
2023/07/11 10:10:01;;;;;;;11.02;2.80;;;;;;;28.69;45.66;158741.28;4934902;29;20050;-73
2023/07/11 10:12:26;;;;;;;11.95;2.80;;;;;;;28.55;46.23;158704.59;4936217;29;20032;-74
2023/07/11 10:15:01;;;;;;;10.43;3.43;;;;;;;28.22;46.30;158619.25;4935147;29;20118;-73
2023/07/11 10:17:36;;;;;;;9.10;3.17;;;;;;;28.16;46.44;158602.22;4930009;29;20036;-74
2023/07/11 10:20:06;;;;;;;11.60;2.90;;;;;;;28.16;47.21;158602.22;4936263;29;20027;-73
2023/07/11 10:22:32;;;;;;;10.13;3.17;;;;;;;28.09;47.10;158585.16;4934901;29;20019;-73
2023/07/11 10:25:01;;;;;;;9.38;3.15;;;;;;;28.03;46.85;158568.09;4912307;29;20035;-74
2023/07/11 10:27:31;;;;;;;11.48;3.22;;;;;;;28.27;46.93;158632.34;4915600;29;20415;-73
2023/07/11 10:29:59;;;;;;;10.70;3.42;;;;;;;27.87;47.83;158526.13;4915205;29;20031;-74
2023/07/11 10:32:32;;;;;;;10.27;2.83;;;;;;;28.10;47.83;158586.44;4936442;29;20112;-73
2023/07/11 10:35:01;;;;;;;10.13;3.55;;;;;;;28.16;46.93;158603.50;4920604;29;20051;-72
2023/07/11 10:37:45;;;;;;;10.55;2.95;;;;;;;28.79;46.53;158768.88;4938062;29;20102;-74
2023/07/11 10:40:27;;;;;;;10.50;3.58;;;;;;;28.64;46.45;158728.22;4915074;29;20488;-73
2023/07/11 10:43:22;;;;;;;9.43;3.15;;;;;;;28.15;46.93;158599.56;4935266;29;20031;-74
2023/07/11 10:45:50;;;;;;;21.55;3.50;;;;;;;28.53;46.18;158699.31;4935961;29;20054;-74
2023/07/11 10:48:24;;;;;;;14.90;3.53;;;;;;;28.96;45.70;158813.53;4917668;29;20126;-73
2023/07/11 10:51:00;;;;;;;11.18;3.83;;;;;;;29.07;45.52;158841.13;4934418;29;20023;-72
2023/07/11 10:53:34;;;;;;;18.20;3.22;;;;;;;29.43;45.44;158936.91;4930347;29;20035;-73
2023/07/11 10:56:21;;;;;;;10.70;3.92;;;;;;;29.37;45.15;158919.84;4915385;29;20166;-73
2023/07/11 10:58:47;;;;;;;18.25;4.07;;;;;;;29.52;44.98;158959.22;4931810;29;20387;-71
2023/07/11 11:01:18;;;;;;;7.40;3.37;;;;;;;29.50;44.38;158955.28;4936535;29;20134;-71
2023/07/11 11:03:47;;;;;;;12.52;3.35;;;;;;;29.50;45.24;158954.00;4931357;29;20309;-72
2023/07/11 11:06:35;;;;;;;11.23;3.97;;;;;;;29.92;45.21;159064.34;4935627;29;20388;-71
2023/07/11 11:09:10;;;;;;;9.30;4.03;;;;;;;29.83;44.38;159040.69;4935730;29;20164;-71
2023/07/11 11:11:52;;;;;;;9.35;3.17;;;;;;;30.10;44.76;159112.94;4938168;29;20166;-71
2023/07/11 11:14:28;;;;;;;16.33;3.70;;;;;;;30.03;43.75;159094.53;4933110;29;20484;-72
2023/07/11 11:17:24;;;;;;;11.27;3.60;;;;;;;30.35;43.08;159177.34;4936006;29;20034;-72
2023/07/11 11:20:25;;;;;;;9.85;3.10;;;;;;;30.32;44.25;159170.78;4935273;29;20479;-71
2023/07/11 11:23:21;;;;;;;10.60;3.42;;;;;;;29.81;44.86;159036.75;4931726;29;20043;-72
2023/07/11 11:26:07;;;;;;;10.52;3.20;;;;;;;29.88;44.02;159053.84;4939319;29;20036;-71
2023/07/11 11:28:57;;;;;;;10.88;3.25;;;;;;;29.66;44.29;158997.34;4929954;29;20039;-71
2023/07/11 11:31:29;;;;;;;14.63;3.40;;;;;;;29.80;44.16;159034.13;4935563;29;20059;-71
2023/07/11 11:34:16;;;;;;;10.77;2.63;;;;;;;29.69;45.15;159003.91;4918350;29;20032;-71